Search for airport 
image banner adimage banner adimage banner ad
image banner ad

PN54 - Akm Airfield

Located in Columia Cross Roads, United States

ICAO - PN54, IATA -

Data provided by Airmate  

General information

Coordinates: N41°50'30" W76°44'45"
Elevation is 1393 feet MSL.
Magnetic variation is -12° East
View others Airports in Pennsylvania

Operational data

Special qualification required
Current time UTC:
Current local time:
Weather at : KELM - Elmira/Corning Rgnl ( 37 km )
METAR: KELM 132053Z 13008KT 10SM CLR 29/16 A2980 RMK AO2 SLP085 T02940156 57014
TAF: KELM 132038Z 1321/1418 19003KT P6SM SCT050 FM140000 VRB03KT P6SM VCTS BKN040CB TEMPO 1400/1404 VRB25G40KT 3SM TSRA BKN030CB FM140500 VRB02KT 6SM BR VCSH BKN022 FM140900 00000KT 2SM BR BKN005 FM141400 00000KT 3SM -SHRA BR BKN018
View NOTAMs / SUP AIP / TFR affecting this airport [VIEW]
Communications frequencies: [VIEW]

Runways:

RWY identifierQFULength (ft)Width (ft)SurfaceLDA (ft)
182100100GRASS
362100100GRASS

Airport contact information

Address: Columia Cross Roads United States

Satellite view of PN54